Time;durP1;ratioP1;P1;durP2;ratioP2;P2;SDS_P1;SDS_P2;PMS_P1;PMS_P2;Temp;Humidity;BMP_temperature;BMP_pressure;BME280_temperature;BME280_humidity;BME280_pressure;Samples;Min_cycle;Max_cycle;Signal;HPM_P1;HPM_P2
2023/03/22 00:01:12;;;;;;;5.72;4.63;;;18.20;63.40;;;;;;5093280;28;20032;-24
2023/03/22 00:03:38;;;;;;;7.43;4.80;;;18.20;63.40;;;;;;5093662;28;20048;-25
2023/03/22 00:06:04;;;;;;;6.90;4.90;;;18.20;63.40;;;;;;5093322;28;20020;-23
2023/03/22 00:08:30;;;;;;;6.28;5.00;;;18.20;63.40;;;;;;5093466;28;20099;-25
2023/03/22 00:10:56;;;;;;;7.80;5.32;;;18.20;63.40;;;;;;5093026;28;20107;-24
2023/03/22 00:13:25;;;;;;;7.40;5.18;;;18.20;63.40;;;;;;5093340;28;20031;-24
2023/03/22 00:15:51;;;;;;;8.55;5.25;;;18.20;63.40;;;;;;5093232;28;20082;-24
2023/03/22 00:18:18;;;;;;;8.00;5.10;;;18.20;63.40;;;;;;5093033;28;20450;-24
2023/03/22 00:20:49;;;;;;;6.55;5.03;;;18.20;63.40;;;;;;5092997;28;20039;-24
2023/03/22 00:23:15;;;;;;;7.07;5.10;;;18.20;63.40;;;;;;5091883;28;20039;-24
2023/03/22 00:25:44;;;;;;;6.75;5.22;;;18.20;63.40;;;;;;5093010;28;20032;-24
2023/03/22 00:28:10;;;;;;;7.30;5.30;;;18.20;63.50;;;;;;5094802;28;20035;-24
2023/03/22 00:30:36;;;;;;;6.10;4.97;;;18.20;63.50;;;;;;5097219;28;20035;-24
2023/03/22 00:33:02;;;;;;;7.45;5.53;;;18.20;63.50;;;;;;5097294;28;20020;-24
2023/03/22 00:35:29;;;;;;;7.93;5.95;;;18.20;63.50;;;;;;5097364;28;20020;-25
2023/03/22 00:37:55;;;;;;;6.60;5.20;;;18.10;63.50;;;;;;5096815;28;20032;-25
2023/03/22 00:40:21;;;;;;;7.18;5.15;;;18.10;63.50;;;;;;5097086;28;20028;-24
2023/03/22 00:42:47;;;;;;;6.53;5.20;;;18.20;63.50;;;;;;5097229;28;20024;-24
2023/03/22 00:45:13;;;;;;;7.50;5.57;;;18.10;63.50;;;;;;5095643;28;20549;-24
2023/03/22 00:47:39;;;;;;;6.85;5.07;;;18.10;63.50;;;;;;5096702;28;20077;-24
2023/03/22 00:50:07;;;;;;;7.65;5.43;;;18.10;63.50;;;;;;5096945;28;20028;-24
2023/03/22 00:52:36;;;;;;;7.70;5.65;;;18.10;63.50;;;;;;5097000;28;20028;-24
2023/03/22 00:55:02;;;;;;;7.10;5.32;;;18.10;63.50;;;;;;5096991;28;20032;-24
2023/03/22 00:57:28;;;;;;;8.43;5.82;;;18.10;63.50;;;;;;5096913;28;20032;-24
2023/03/22 00:59:54;;;;;;;7.95;5.40;;;18.10;63.50;;;;;;5096326;28;20459;-24
2023/03/22 01:02:28;;;;;;;8.05;5.65;;;18.10;63.50;;;;;;5096553;28;20024;-24
2023/03/22 01:04:54;;;;;;;7.30;5.43;;;18.10;63.50;;;;;;5096904;28;20085;-24
2023/03/22 01:07:22;;;;;;;7.00;5.40;;;18.00;63.50;;;;;;5096823;28;20081;-24
2023/03/22 01:09:50;;;;;;;8.80;6.13;;;18.00;63.50;;;;;;5096200;28;20030;-24
2023/03/22 01:12:17;;;;;;;8.02;5.78;;;18.10;63.50;;;;;;5096643;28;20054;-24
2023/03/22 01:14:43;;;;;;;7.78;5.53;;;18.10;63.50;;;;;;5096616;28;20077;-24
2023/03/22 01:17:10;;;;;;;7.40;5.65;;;18.10;63.60;;;;;;5095999;28;20511;-24
2023/03/22 01:19:36;;;;;;;7.40;5.57;;;18.00;63.60;;;;;;5096542;28;20387;-24
2023/03/22 01:22:04;;;;;;;7.15;5.50;;;18.00;63.60;;;;;;5095937;28;20032;-24
2023/03/22 01:24:30;;;;;;;9.07;5.88;;;18.10;63.50;;;;;;5096454;28;20032;-24
2023/03/22 01:26:57;;;;;;;7.30;5.60;;;18.00;63.60;;;;;;5096031;28;20035;-24
2023/03/22 01:29:24;;;;;;;8.10;6.22;;;18.00;63.60;;;;;;5096364;28;20031;-24
2023/03/22 01:31:50;;;;;;;8.15;5.68;;;18.00;63.60;;;;;;5095919;28;20113;-24
2023/03/22 01:34:17;;;;;;;8.63;6.00;;;18.00;63.60;;;;;;5096219;28;20024;-24
2023/03/22 01:36:43;;;;;;;7.07;5.30;;;18.00;63.60;;;;;;5096240;28;20043;-24
2023/03/22 01:39:12;;;;;;;9.25;6.13;;;18.00;63.60;;;;;;5095625;28;20036;-24
2023/03/22 01:41:38;;;;;;;8.27;6.20;;;18.00;63.60;;;;;;5095676;28;20074;-24
2023/03/22 01:44:11;;;;;;;7.93;5.72;;;18.00;63.60;;;;;;5095987;28;20028;-25
2023/03/22 01:46:41;;;;;;;8.55;6.20;;;18.00;63.60;;;;;;5096188;28;20056;-24
2023/03/22 01:49:34;;;;;;;9.73;6.60;;;18.00;63.60;;;;;;5095746;28;20029;-24
2023/03/22 01:52:05;;;;;;;7.32;5.65;;;18.00;63.60;;;;;;5093729;28;20557;-23
2023/03/22 01:54:39;;;;;;;9.15;6.47;;;18.00;63.60;;;;;;5095660;28;20016;-24
2023/03/22 01:57:05;;;;;;;8.30;6.03;;;18.00;63.60;;;;;;5095531;28;20024;-25
2023/03/22 01:59:31;;;;;;;9.00;6.18;;;18.00;63.60;;;;;;5095693;28;20024;-24
2023/03/22 02:02:02;;;;;;;8.35;6.32;;;18.00;63.60;;;;;;5095127;28;20395;-24
2023/03/22 02:04:34;;;;;;;8.75;6.35;;;18.00;63.60;;;;;;5095770;28;20028;-24
2023/03/22 02:07:09;;;;;;;9.55;6.15;;;18.00;63.60;;;;;;5095757;28;20032;-24
2023/03/22 02:09:40;;;;;;;8.10;6.18;;;18.00;63.60;;;;;;5095698;28;20043;-24
2023/03/22 02:12:06;;;;;;;8.77;6.38;;;17.90;63.60;;;;;;5095020;28;20033;-24
2023/03/22 02:14:34;;;;;;;8.85;6.40;;;18.00;63.60;;;;;;5095487;28;20070;-24
2023/03/22 02:17:26;;;;;;;9.73;6.53;;;17.90;63.60;;;;;;5095084;28;20571;-24
2023/03/22 02:19:52;;;;;;;8.20;6.00;;;18.00;63.60;;;;;;5095172;28;20028;-24
2023/03/22 02:22:58;;;;;;;8.60;6.07;;;18.00;63.60;;;;;;5095080;28;20460;-24
2023/03/22 02:25:59;;;;;;;10.52;6.30;;;17.90;63.60;;;;;;5095038;28;20427;-24
2023/03/22 02:28:49;;;;;;;8.15;6.05;;;17.90;63.70;;;;;;5079129;28;20028;-24
2023/03/22 02:31:56;;;;;;;9.23;6.65;;;17.90;63.60;;;;;;5094981;28;20044;-24
2023/03/22 02:34:28;;;;;;;8.50;6.05;;;17.90;63.60;;;;;;5080721;28;20056;-24
2023/03/22 02:37:09;;;;;;;8.27;6.03;;;17.90;63.70;;;;;;5095088;28;20035;-24
2023/03/22 02:39:44;;;;;;;8.75;6.57;;;17.90;63.70;;;;;;5095154;28;20119;-25
2023/03/22 02:42:36;;;;;;;9.10;6.35;;;17.90;63.70;;;;;;5094865;28;20071;-24
2023/03/22 02:45:32;;;;;;;8.02;5.93;;;17.90;63.70;;;;;;5094712;28;20028;-24
2023/03/22 02:48:43;;;;;;;8.75;5.78;;;17.90;63.70;;;;;;5094485;28;20024;-24
2023/03/22 02:51:24;;;;;;;8.48;6.22;;;17.90;63.70;;;;;;5051631;28;20041;-24
2023/03/22 02:54:12;;;;;;;8.77;6.90;;;17.90;63.70;;;;;;5052088;28;20570;-24
2023/03/22 02:57:20;;;;;;;9.00;6.60;;;17.90;63.70;;;;;;5052094;28;20031;-24
2023/03/22 02:59:47;;;;;;;8.63;6.78;;;17.90;63.70;;;;;;5034868;28;20024;-23
2023/03/22 03:02:17;;;;;;;9.52;6.22;;;17.90;63.70;;;;;;5051968;28;20037;-23
2023/03/22 03:04:45;;;;;;;8.18;6.10;;;17.90;63.70;;;;;;5052005;28;20112;-23
2023/03/22 03:07:15;;;;;;;9.15;6.57;;;17.90;63.70;;;;;;5052059;28;20036;-24
2023/03/22 03:09:42;;;;;;;9.35;6.68;;;17.90;63.70;;;;;;5051927;28;20496;-23
2023/03/22 03:12:17;;;;;;;9.27;6.53;;;17.90;63.80;;;;;;5051742;28;20017;-23
2023/03/22 03:14:43;;;;;;;8.57;6.43;;;17.90;63.80;;;;;;5051802;28;20540;-24
2023/03/22 03:17:27;;;;;;;8.95;6.60;;;17.90;63.80;;;;;;5051337;28;20029;-23
2023/03/22 03:20:05;;;;;;;8.63;6.60;;;17.90;63.90;;;;;;5051520;28;20033;-23
2023/03/22 03:22:43;;;;;;;8.10;6.00;;;17.90;63.90;;;;;;5051717;28;20557;-24
2023/03/22 03:25:24;;;;;;;8.25;6.35;;;17.90;63.90;;;;;;5051649;28;20124;-24
2023/03/22 03:28:00;;;;;;;9.45;6.50;;;17.90;63.90;;;;;;5093482;28;20126;-25
2023/03/22 03:30:44;;;;;;;8.80;6.40;;;17.90;63.90;;;;;;5094012;28;20023;-24
2023/03/22 03:33:15;;;;;;;;;;;17.90;63.90;;;;;;5094218;28;20040;-24
2023/03/22 03:35:49;;;;;;;8.30;6.20;;;17.80;64.10;;;;;;5093781;28;20360;-23
2023/03/22 03:38:22;;;;;;;8.05;5.93;;;17.80;63.90;;;;;;5093786;28;20024;-23
2023/03/22 03:41:04;;;;;;;7.55;5.93;;;17.80;63.90;;;;;;5093541;28;20391;-25
2023/03/22 03:43:31;;;;;;;10.23;6.70;;;17.90;63.90;;;;;;5093648;28;20028;-23
2023/03/22 03:45:57;;;;;;;8.88;6.78;;;17.80;64.00;;;;;;5093677;28;20030;-24
2023/03/22 03:48:28;;;;;;;8.85;6.68;;;17.80;64.00;;;;;;5093859;28;20024;-24
2023/03/22 03:50:55;;;;;;;8.25;6.50;;;17.80;63.90;;;;;;5093474;28;20024;-23
2023/03/22 03:53:21;;;;;;;9.02;6.53;;;17.90;64.00;;;;;;5093774;28;20036;-23
2023/03/22 03:55:47;;;;;;;8.15;6.20;;;17.80;64.00;;;;;;5093276;28;20028;-24
2023/03/22 03:58:14;;;;;;;8.57;6.15;;;17.80;64.00;;;;;;5093913;28;20024;-23
2023/03/22 04:00:40;;;;;;;8.45;6.38;;;17.80;64.00;;;;;;5093305;28;20039;-23
2023/03/22 04:03:06;;;;;;;8.13;6.13;;;17.80;64.00;;;;;;5093078;28;20020;-23
2023/03/22 04:05:32;;;;;;;8.55;6.63;;;17.80;64.10;;;;;;5093277;28;20059;-23
2023/03/22 04:07:58;;;;;;;7.38;5.88;;;17.80;64.10;;;;;;5093284;28;20361;-23
2023/03/22 04:10:24;;;;;;;8.63;6.32;;;17.80;64.10;;;;;;5093533;28;20495;-23
2023/03/22 04:12:50;;;;;;;8.10;6.30;;;17.80;64.10;;;;;;5093117;28;20031;-24
2023/03/22 04:15:16;;;;;;;10.90;6.53;;;17.80;64.10;;;;;;5093500;28;20024;-24
2023/03/22 04:17:41;;;;;;;8.65;6.53;;;17.80;64.10;;;;;;5091682;28;20127;-23
2023/03/22 04:20:10;;;;;;;8.52;6.38;;;17.80;64.10;;;;;;5093014;28;20127;-24
2023/03/22 04:22:39;;;;;;;8.68;6.80;;;17.80;64.10;;;;;;5093081;28;20030;-25
2023/03/22 04:25:12;;;;;;;8.50;6.65;;;17.80;64.10;;;;;;5093137;28;20077;-23
2023/03/22 04:27:40;;;;;;;8.50;6.35;;;17.80;64.10;;;;;;5093389;28;20467;-23
2023/03/22 04:30:09;;;;;;;9.55;6.53;;;17.80;64.20;;;;;;5091606;28;20028;-24
2023/03/22 04:32:36;;;;;;;8.38;6.50;;;17.80;64.20;;;;;;5093342;28;20104;-23
2023/03/22 04:35:02;;;;;;;8.95;6.25;;;17.70;64.20;;;;;;5092010;28;20506;-23
2023/03/22 04:37:30;;;;;;;8.40;6.50;;;17.70;64.20;;;;;;5093150;28;20028;-24
2023/03/22 04:39:57;;;;;;;8.80;6.57;;;17.70;64.20;;;;;;5092697;28;20036;-23
2023/03/22 04:42:24;;;;;;;9.30;6.90;;;17.70;64.20;;;;;;5092863;28;20105;-24
2023/03/22 04:44:50;;;;;;;8.48;6.82;;;17.80;64.20;;;;;;5093694;28;20075;-24
2023/03/22 04:47:16;;;;;;;8.65;6.70;;;17.70;64.20;;;;;;5093189;28;20056;-23
2023/03/22 04:49:43;;;;;;;9.13;6.65;;;17.70;64.20;;;;;;5092658;28;20061;-24
2023/03/22 04:52:09;;;;;;;9.90;7.00;;;17.70;64.20;;;;;;5091949;28;20020;-23
2023/03/22 04:54:36;;;;;;;9.15;6.32;;;17.70;64.20;;;;;;5093162;28;20074;-23
2023/03/22 04:57:02;;;;;;;8.82;6.47;;;17.70;64.20;;;;;;5093093;28;20032;-23
2023/03/22 04:59:29;;;;;;;9.57;6.65;;;17.70;64.30;;;;;;5092963;28;20028;-23
2023/03/22 05:01:54;;;;;;;9.52;6.63;;;17.70;64.30;;;;;;5092583;28;20032;-23
2023/03/22 05:04:21;;;;;;;8.77;6.88;;;17.70;64.30;;;;;;5093393;28;20036;-23
2023/03/22 05:06:47;;;;;;;7.90;6.10;;;17.70;64.30;;;;;;5092874;28;20024;-23
2023/03/22 05:09:13;;;;;;;8.45;6.57;;;17.70;64.30;;;;;;5092994;28;20370;-23
2023/03/22 05:11:39;;;;;;;8.30;6.35;;;17.70;64.30;;;;;;5092964;28;20048;-23
2023/03/22 05:14:06;;;;;;;9.13;6.72;;;17.70;64.30;;;;;;5093653;28;20020;-24
2023/03/22 05:16:32;;;;;;;10.20;6.75;;;17.70;64.30;;;;;;5096695;28;20101;-24
2023/03/22 05:19:01;;;;;;;8.73;6.75;;;17.70;64.30;;;;;;5096131;28;20044;-23
2023/03/22 05:21:28;;;;;;;9.18;6.25;;;17.70;64.30;;;;;;5096683;28;20043;-23
2023/03/22 05:23:58;;;;;;;8.82;6.57;;;17.70;64.30;;;;;;5096029;28;20085;-24
2023/03/22 05:26:25;;;;;;;8.75;6.60;;;17.70;64.30;;;;;;5096632;28;20483;-23
2023/03/22 05:28:53;;;;;;;8.55;6.75;;;17.60;64.40;;;;;;5096143;28;20505;-24
2023/03/22 05:31:20;;;;;;;8.73;6.60;;;17.70;64.40;;;;;;5096100;28;20077;-24
2023/03/22 05:33:52;;;;;;;8.25;6.38;;;17.70;64.30;;;;;;5096178;28;20027;-24
2023/03/22 05:36:20;;;;;;;9.10;6.88;;;17.60;64.40;;;;;;5095980;28;20032;-23
2023/03/22 05:38:46;;;;;;;8.73;6.82;;;17.60;64.40;;;;;;5095967;28;20418;-23
2023/03/22 05:41:12;;;;;;;8.95;6.40;;;17.60;64.40;;;;;;5096071;28;20078;-24
2023/03/22 05:43:38;;;;;;;8.00;6.20;;;17.60;64.30;;;;;;5096086;28;20031;-24
2023/03/22 05:46:09;;;;;;;8.27;6.60;;;17.70;64.30;;;;;;5095626;28;20023;-24
2023/03/22 05:48:37;;;;;;;9.73;6.75;;;17.60;64.30;;;;;;5096124;28;20039;-23
2023/03/22 05:51:16;;;;;;;7.80;6.20;;;17.70;64.30;;;;;;5095830;28;20498;-24
2023/03/22 05:53:43;;;;;;;9.30;6.50;;;17.70;64.30;;;;;;5095528;28;20039;-22
2023/03/22 05:56:09;;;;;;;7.85;6.32;;;17.60;64.30;;;;;;5095529;28;20488;-23
2023/03/22 05:58:35;;;;;;;9.77;6.63;;;17.80;64.20;;;;;;5095917;28;20024;-23
2023/03/22 06:01:10;;;;;;;9.25;6.88;;;17.80;64.20;;;;;;5095467;28;20379;-22
2023/03/22 06:03:39;;;;;;;9.20;6.68;;;17.80;64.10;;;;;;5095837;28;20032;-23
2023/03/22 06:06:09;;;;;;;8.32;6.30;;;17.90;64.00;;;;;;5095534;28;20027;-23
2023/03/22 06:08:38;;;;;;;9.43;6.75;;;17.90;63.90;;;;;;5095436;28;20028;-23
2023/03/22 06:11:05;;;;;;;8.90;6.45;;;17.90;63.90;;;;;;5095281;28;20016;-23
2023/03/22 06:13:31;;;;;;;8.85;6.63;;;17.90;63.80;;;;;;5095288;28;20032;-23
2023/03/22 06:16:02;;;;;;;8.15;6.38;;;17.90;63.80;;;;;;5095015;28;20052;-24
2023/03/22 06:18:29;;;;;;;8.38;6.28;;;17.90;63.80;;;;;;5095014;28;20135;-23
2023/03/22 06:20:55;;;;;;;8.43;6.20;;;17.90;63.80;;;;;;5095076;28;20036;-24
2023/03/22 06:23:21;;;;;;;7.70;6.00;;;17.90;63.80;;;;;;5095399;28;20017;-24
2023/03/22 06:25:47;;;;;;;8.27;6.18;;;17.90;63.80;;;;;;5093546;28;20035;-24
2023/03/22 06:28:13;;;;;;;9.20;6.07;;;17.90;63.80;;;;;;5095023;28;20089;-24
2023/03/22 06:30:39;;;;;;;7.50;5.93;;;17.90;63.80;;;;;;5095224;28;20099;-24
2023/03/22 06:33:05;;;;;;;8.20;6.25;;;17.90;63.80;;;;;;5095225;28;20036;-23
2023/03/22 06:35:32;;;;;;;7.97;6.28;;;17.90;63.80;;;;;;5094785;28;20498;-25
2023/03/22 06:37:58;;;;;;;7.55;6.40;;;17.90;63.80;;;;;;5094598;28;20048;-24
2023/03/22 06:40:24;;;;;;;9.05;6.35;;;17.90;63.80;;;;;;5093427;28;20035;-24
2023/03/22 06:42:50;;;;;;;9.93;6.28;;;17.90;63.90;;;;;;5094615;28;20024;-24
2023/03/22 06:45:16;;;;;;;9.73;6.63;;;17.90;63.90;;;;;;5094615;28;20026;-24
2023/03/22 06:47:43;;;;;;;8.90;6.35;;;17.90;63.90;;;;;;5094548;28;20532;-26
2023/03/22 06:50:09;;;;;;;7.95;6.20;;;17.90;63.90;;;;;;5094594;28;20028;-24
2023/03/22 06:52:35;;;;;;;6.47;5.32;;;17.90;63.80;;;;;;5094806;28;20107;-24
2023/03/22 06:55:02;;;;;;;8.05;6.53;;;17.90;63.90;;;;;;5094601;28;20031;-24
2023/03/22 06:57:31;;;;;;;7.63;6.10;;;17.90;63.80;;;;;;5094442;28;20024;-24
2023/03/22 06:59:57;;;;;;;6.65;5.63;;;17.90;63.80;;;;;;5094286;28;20020;-24
2023/03/22 07:02:23;;;;;;;8.50;6.72;;;17.90;63.80;;;;;;5093010;28;20066;-24
2023/03/22 07:04:49;;;;;;;8.23;6.03;;;17.90;63.70;;;;;;5094618;28;20024;-24
2023/03/22 07:07:15;;;;;;;8.45;6.07;;;17.90;63.70;;;;;;5094252;28;20035;-24
2023/03/22 07:09:41;;;;;;;9.05;6.13;;;18.00;63.70;;;;;;5094067;28;20601;-24
2023/03/22 07:12:06;;;;;;;7.68;6.15;;;18.10;63.60;;;;;;5093892;28;20031;-23
2023/03/22 07:14:32;;;;;;;8.15;6.10;;;18.20;63.40;;;;;;5094732;28;20032;-24
2023/03/22 07:16:59;;;;;;;8.93;6.18;;;18.40;63.20;;;;;;5093675;28;20032;-24
2023/03/22 07:19:24;;;;;;;9.77;6.95;;;18.50;63.00;;;;;;5094028;28;20388;-24
2023/03/22 07:21:52;;;;;;;10.93;6.15;;;18.60;62.80;;;;;;5093603;28;20044;-24
2023/03/22 07:24:18;;;;;;;9.25;6.85;;;18.80;62.70;;;;;;5093906;28;20077;-23
2023/03/22 07:26:44;;;;;;;10.45;6.43;;;18.90;62.60;;;;;;5094084;28;20055;-23
2023/03/22 07:29:10;;;;;;;10.15;6.60;;;19.10;62.30;;;;;;5094105;28;20506;-24
2023/03/22 07:31:36;;;;;;;10.25;6.97;;;19.30;62.10;;;;;;5093697;28;20514;-24
2023/03/22 07:34:05;;;;;;;11.65;6.18;;;19.40;61.80;;;;;;5093969;28;20137;-24
2023/03/22 07:36:32;;;;;;;8.60;6.25;;;19.60;61.50;;;;;;5093165;28;20063;-24
2023/03/22 07:38:57;;;;;;;10.05;6.35;;;19.80;61.30;;;;;;5093725;28;20035;-24
2023/03/22 07:41:25;;;;;;;11.50;6.40;;;19.90;60.90;;;;;;5093434;28;20024;-24
2023/03/22 07:43:51;;;;;;;7.63;5.90;;;20.10;60.60;;;;;;5093415;28;20028;-23
2023/03/22 07:46:17;;;;;;;12.30;6.53;;;20.20;60.40;;;;;;5094094;28;20028;-24
2023/03/22 07:48:43;;;;;;;7.90;5.53;;;20.20;60.20;;;;;;5093849;28;20016;-24
2023/03/22 07:51:09;;;;;;;8.13;6.15;;;20.20;60.00;;;;;;5093805;28;20020;-23
2023/03/22 07:53:35;;;;;;;7.25;5.75;;;20.10;60.10;;;;;;5093742;28;20028;-24
2023/03/22 07:56:02;;;;;;;8.23;6.00;;;20.10;60.20;;;;;;5093445;28;20040;-24
2023/03/22 07:58:28;;;;;;;7.63;5.68;;;20.00;60.40;;;;;;5093603;28;20024;-23
2023/03/22 08:01:02;;;;;;;7.60;5.80;;;19.90;60.60;;;;;;5093547;28;20028;-23
2023/03/22 08:03:27;;;;;;;8.05;5.70;;;19.80;60.80;;;;;;5093296;28;20028;-23
2023/03/22 08:05:53;;;;;;;8.93;5.82;;;19.80;60.90;;;;;;5093316;28;20125;-23
2023/03/22 08:08:19;;;;;;;9.75;5.93;;;19.70;61.10;;;;;;5093249;28;20031;-23
2023/03/22 08:10:50;;;;;;;8.43;5.75;;;19.60;61.20;;;;;;5093616;28;20052;-23
2023/03/22 08:13:16;;;;;;;15.73;6.78;;;19.60;61.30;;;;;;5093386;28;20032;-23
2023/03/22 08:15:42;;;;;;;14.05;6.53;;;19.50;61.40;;;;;;5093423;28;20031;-22
2023/03/22 08:18:07;;;;;;;10.15;5.80;;;19.50;61.50;;;;;;5091742;28;20399;-23
2023/03/22 08:20:33;;;;;;;9.32;6.18;;;19.50;61.60;;;;;;5093302;28;20047;-23
2023/03/22 08:23:00;;;;;;;9.18;5.60;;;19.40;61.60;;;;;;5093141;28;20118;-23
2023/03/22 08:25:25;;;;;;;9.55;6.22;;;19.40;61.70;;;;;;5093363;28;20024;-23
2023/03/22 08:27:51;;;;;;;11.43;6.80;;;19.40;61.70;;;;;;5092894;28;20020;-23
2023/03/22 08:30:17;;;;;;;11.55;6.50;;;19.40;61.80;;;;;;5093309;28;20024;-24
2023/03/22 08:32:43;;;;;;;12.18;6.53;;;19.40;61.70;;;;;;5093246;28;20024;-23
2023/03/22 08:35:09;;;;;;;10.32;5.97;;;19.40;61.80;;;;;;5093333;28;20028;-23
2023/03/22 08:37:35;;;;;;;15.30;6.90;;;19.40;61.80;;;;;;5093294;28;20028;-23
2023/03/22 08:40:00;;;;;;;10.75;7.03;;;19.30;61.80;;;;;;5092993;28;20379;-23
2023/03/22 08:42:26;;;;;;;11.80;6.45;;;19.40;61.80;;;;;;5093141;28;20123;-23
2023/03/22 08:44:52;;;;;;;13.50;6.50;;;19.30;61.80;;;;;;5092915;28;20028;-23
2023/03/22 08:47:18;;;;;;;10.40;6.75;;;19.30;61.80;;;;;;5092000;28;20032;-23
2023/03/22 08:49:44;;;;;;;11.43;6.70;;;19.30;61.80;;;;;;5095054;28;20016;-23
2023/03/22 08:52:10;;;;;;;9.75;6.47;;;19.30;61.80;;;;;;5096948;28;20020;-23
2023/03/22 08:54:37;;;;;;;9.43;6.28;;;19.30;61.80;;;;;;5096815;28;20028;-24
2023/03/22 08:57:03;;;;;;;11.60;6.32;;;19.30;61.80;;;;;;5096987;28;20028;-24
2023/03/22 08:59:29;;;;;;;9.98;6.97;;;19.40;61.80;;;;;;5096877;28;20024;-24
2023/03/22 09:01:55;;;;;;;11.27;6.70;;;19.30;61.70;;;;;;5096866;28;20036;-24
2023/03/22 09:04:21;;;;;;;10.98;6.95;;;19.40;61.70;;;;;;5097003;28;20399;-24
2023/03/22 09:06:47;;;;;;;11.23;7.13;;;19.40;61.60;;;;;;5096611;28;20392;-23
2023/03/22 09:09:13;;;;;;;9.80;6.50;;;19.40;61.70;;;;;;5095380;28;20031;-24
2023/03/22 09:11:41;;;;;;;9.77;6.78;;;19.40;61.60;;;;;;5096608;28;20575;-24
2023/03/22 09:14:08;;;;;;;12.35;7.20;;;19.40;61.60;;;;;;5096484;28;20028;-25
2023/03/22 09:16:34;;;;;;;10.80;6.60;;;19.40;61.60;;;;;;5096749;28;20103;-24
2023/03/22 09:19:01;;;;;;;10.13;6.75;;;19.40;61.60;;;;;;5096261;28;20071;-24
2023/03/22 09:21:28;;;;;;;12.18;6.85;;;19.40;61.50;;;;;;5096619;28;20032;-24
2023/03/22 09:23:55;;;;;;;11.00;6.85;;;19.40;61.50;;;;;;5096141;28;20476;-24
2023/03/22 09:26:22;;;;;;;10.98;6.50;;;19.40;61.50;;;;;;5096204;28;20055;-24
2023/03/22 09:28:48;;;;;;;13.15;7.00;;;19.50;61.50;;;;;;5096158;28;20031;-25
2023/03/22 09:31:15;;;;;;;10.27;6.45;;;19.50;61.50;;;;;;5096370;28;20012;-23
2023/03/22 09:33:41;;;;;;;9.07;6.10;;;19.40;61.50;;;;;;5096422;28;20016;-23
2023/03/22 09:36:10;;;;;;;10.98;6.85;;;19.50;61.50;;;;;;5096627;28;20031;-24
2023/03/22 09:38:37;;;;;;;10.82;7.90;;;19.50;61.50;;;;;;5096062;28;20459;-23
2023/03/22 09:41:27;;;;;;;13.13;7.50;;;19.50;61.50;;;;;;5096238;28;20032;-23
2023/03/22 09:43:58;;;;;;;10.02;6.60;;;19.50;61.40;;;;;;5095780;28;20060;-23
2023/03/22 09:46:36;;;;;;;10.18;7.25;;;19.50;61.40;;;;;;5096202;28;20020;-23
2023/03/22 09:49:15;;;;;;;9.15;6.35;;;19.50;61.40;;;;;;5095943;28;20027;-23
2023/03/22 09:51:42;;;;;;;11.27;7.30;;;19.50;61.40;;;;;;5094663;28;20028;-23
2023/03/22 09:54:16;;;;;;;10.40;7.20;;;19.50;61.40;;;;;;5095726;28;20049;-23
2023/03/22 09:56:44;;;;;;;10.02;7.25;;;19.60;61.40;;;;;;5095528;28;20092;-23
2023/03/22 09:59:22;;;;;;;11.23;7.03;;;19.60;61.40;;;;;;5094261;28;20492;-23
2023/03/22 10:02:00;;;;;;;12.70;7.00;;;19.60;61.40;;;;;;5095639;28;20075;-23
2023/03/22 10:04:41;;;;;;;10.23;6.30;;;19.60;61.40;;;;;;5095598;28;20028;-23
2023/03/22 10:07:22;;;;;;;10.18;6.57;;;19.60;61.30;;;;;;5095841;28;20507;-24
2023/03/22 10:10:17;;;;;;;10.35;7.07;;;19.60;61.30;;;;;;5095604;28;20108;-23
2023/03/22 10:12:56;;;;;;;9.60;6.35;;;19.60;61.30;;;;;;5095380;28;20028;-23
2023/03/22 10:15:39;;;;;;;11.90;6.63;;;19.60;61.30;;;;;;5095307;28;20398;-23
2023/03/22 10:18:10;;;;;;;11.25;7.03;;;19.60;61.30;;;;;;5093665;28;20134;-24
2023/03/22 10:20:47;;;;;;;9.30;6.20;;;19.60;61.30;;;;;;5095229;28;20040;-24
2023/03/22 10:23:21;;;;;;;10.35;6.60;;;19.70;61.30;;;;;;5095491;28;20519;-24
2023/03/22 10:25:49;;;;;;;11.00;6.88;;;19.60;61.30;;;;;;5094973;28;20024;-23
2023/03/22 10:28:22;;;;;;;11.82;7.47;;;19.60;61.30;;;;;;5094970;28;20384;-23
2023/03/22 10:30:53;;;;;;;;;;;19.70;61.30;;;;;;5095838;28;20493;-23
2023/03/22 10:33:48;;;;;;;10.43;7.00;;;19.60;61.30;;;;;;5094956;28;19904;-24
2023/03/22 10:36:18;;;;;;;10.32;6.90;;;19.70;61.20;;;;;;5094975;28;20031;-25
2023/03/22 10:38:51;;;;;;;9.45;7.18;;;19.60;61.30;;;;;;5094906;28;20028;-23
2023/03/22 10:41:19;;;;;;;9.88;6.40;;;19.60;61.30;;;;;;5093593;28;20056;-24
2023/03/22 10:43:50;;;;;;;9.55;6.60;;;19.70;61.30;;;;;;5094769;28;20476;-24
2023/03/22 10:46:22;;;;;;;9.10;6.75;;;19.70;61.30;;;;;;5095114;28;20075;-24
2023/03/22 10:48:52;;;;;;;12.60;6.72;;;19.60;61.30;;;;;;5095006;28;20115;-24
2023/03/22 10:51:28;;;;;;;9.05;6.57;;;19.60;61.30;;;;;;5094945;28;20074;-24
2023/03/22 10:53:57;;;;;;;9.75;6.55;;;19.70;61.30;;;;;;5094726;28;20028;-24
2023/03/22 10:56:23;;;;;;;9.38;6.95;;;19.70;61.30;;;;;;5094692;28;20028;-24
2023/03/22 10:58:50;;;;;;;10.90;7.05;;;19.70;61.30;;;;;;5093266;28;20043;-24
2023/03/22 11:01:35;;;;;;;9.75;7.07;;;19.60;61.30;;;;;;5094397;28;20031;-23
2023/03/22 11:04:10;;;;;;;10.13;6.72;;;19.70;61.30;;;;;;5094302;28;20024;-24
2023/03/22 11:06:49;;;;;;;9.25;6.20;;;19.60;61.30;;;;;;5094597;28;20084;-24
2023/03/22 11:09:18;;;;;;;12.40;7.90;;;19.70;61.30;;;;;;5094610;28;20085;-23
2023/03/22 11:11:52;;;;;;;9.57;6.70;;;19.70;61.30;;;;;;5093446;28;20153;-23
2023/03/22 11:14:26;;;;;;;10.60;6.63;;;19.60;61.30;;;;;;5094548;28;20024;-24
2023/03/22 11:16:58;;;;;;;10.10;7.15;;;19.70;61.40;;;;;;5093940;28;20039;-24
2023/03/22 11:19:32;;;;;;;10.95;7.20;;;19.60;61.40;;;;;;5094281;28;20119;-24
2023/03/22 11:21:59;;;;;;;10.48;6.85;;;19.60;61.40;;;;;;5094163;28;20032;-24
2023/03/22 11:24:27;;;;;;;10.55;7.13;;;19.60;61.40;;;;;;5094210;28;20024;-23
2023/03/22 11:27:17;;;;;;;10.60;6.43;;;19.60;61.40;;;;;;5094196;28;20046;-23
2023/03/22 11:29:46;;;;;;;9.48;6.57;;;19.60;61.40;;;;;;5094030;28;20024;-24
2023/03/22 11:32:31;;;;;;;9.70;6.55;;;19.60;61.50;;;;;;5093911;28;20107;-24
2023/03/22 11:35:22;;;;;;;8.43;6.15;;;19.60;61.50;;;;;;5093862;28;20098;-24
2023/03/22 11:37:49;;;;;;;9.00;6.50;;;19.60;61.40;;;;;;5093687;28;20097;-23
2023/03/22 11:40:19;;;;;;;8.13;6.40;;;19.60;61.50;;;;;;5092439;28;20082;-23
2023/03/22 11:42:48;;;;;;;10.38;6.85;;;19.60;61.50;;;;;;5093784;28;20028;-23
2023/03/22 11:45:28;;;;;;;9.77;6.82;;;19.60;61.50;;;;;;5093660;28;20050;-23
2023/03/22 11:48:00;;;;;;;10.30;6.75;;;19.60;61.50;;;;;;5093710;28;20021;-23
2023/03/22 11:50:33;;;;;;;8.88;6.45;;;19.60;61.50;;;;;;5093888;28;20039;-22
2023/03/22 11:53:05;;;;;;;8.43;6.28;;;19.60;61.60;;;;;;5093755;28;20035;-23
2023/03/22 11:55:33;;;;;;;9.25;6.50;;;19.50;61.50;;;;;;5093511;28;20024;-23
2023/03/22 11:58:02;;;;;;;10.55;7.03;;;19.60;61.60;;;;;;5093257;28;20069;-23
2023/03/22 12:00:31;;;;;;;9.30;6.82;;;19.60;61.60;;;;;;5093627;28;20028;-22
2023/03/22 12:03:00;;;;;;;9.75;6.68;;;19.60;61.60;;;;;;5093679;28;20023;-23
2023/03/22 12:05:32;;;;;;;9.95;6.35;;;19.60;61.70;;;;;;5093286;28;20491;-24
2023/03/22 12:08:16;;;;;;;8.63;6.07;;;19.60;61.60;;;;;;5093185;28;20483;-24
2023/03/22 12:10:44;;;;;;;;;;;19.60;61.60;;;;;;5093813;28;20507;-23
2023/03/22 12:13:28;;;;;;;10.15;6.65;;;19.60;61.60;;;;;;5093478;28;19911;-24
2023/03/22 12:15:57;;;;;;;12.50;6.53;;;19.50;61.60;;;;;;5093293;28;20028;-23
2023/03/22 12:18:30;;;;;;;8.30;5.97;;;19.50;61.70;;;;;;5092957;28;20058;-23
2023/03/22 12:20:58;;;;;;;9.50;6.75;;;19.50;61.70;;;;;;5093125;28;20044;-24
2023/03/22 12:23:31;;;;;;;8.68;6.18;;;19.50;61.70;;;;;;5096635;28;20020;-24
2023/03/22 12:26:05;;;;;;;8.90;6.20;;;19.50;61.70;;;;;;5100191;28;20024;-23
2023/03/22 12:28:51;;;;;;;9.32;6.53;;;19.50;61.70;;;;;;5099902;28;20032;-23
2023/03/22 12:31:29;;;;;;;8.73;6.03;;;19.50;61.70;;;;;;5100223;28;20020;-24
2023/03/22 12:33:58;;;;;;;9.25;6.07;;;19.50;61.70;;;;;;5099793;28;20024;-23
2023/03/22 12:36:56;;;;;;;9.02;6.53;;;19.50;61.80;;;;;;5100302;28;20020;-24
2023/03/22 12:39:32;;;;;;;7.97;6.18;;;19.50;61.70;;;;;;5096750;28;20036;-22
2023/03/22 12:42:30;;;;;;;9.20;6.45;;;19.50;61.80;;;;;;5099703;28;20040;-22
2023/03/22 12:45:01;;;;;;;11.80;6.60;;;19.50;61.70;;;;;;5085073;28;20032;-24
2023/03/22 12:47:33;;;;;;;8.52;6.18;;;19.60;61.80;;;;;;5099996;28;20429;-23
2023/03/22 12:50:00;;;;;;;8.20;6.05;;;19.50;61.90;;;;;;5099602;28;20380;-23
2023/03/22 12:52:41;;;;;;;9.90;6.47;;;19.50;61.90;;;;;;5099881;28;20020;-23
2023/03/22 12:55:15;;;;;;;8.80;5.97;;;19.50;61.90;;;;;;5099959;28;20020;-22
2023/03/22 12:57:50;;;;;;;7.85;5.95;;;19.50;61.90;;;;;;5099677;28;20020;-23
2023/03/22 13:00:18;;;;;;;8.98;6.10;;;19.50;61.90;;;;;;5099666;28;20020;-24
2023/03/22 13:03:05;;;;;;;8.95;6.10;;;19.50;61.90;;;;;;5099814;28;20100;-22